Terminal Aerodrome Forecast
Issued by NWS

Home | Current Version | Previous Version | Text Only | Print | Product List | Glossary On
Versions: 1 2 3 4 5 6 7 8 9 10 11 12 13 14 15
000
FTAK31 PAFA 212338
TAFASC
TAF
PASC 212338Z 2200/2224 23020KT 2SM BLSN BR BKN020 BKN060
     FM220600 23018KT 3SM BLSN BR SCT020
     FM221500 23014KT P6SM SCT020=

USA.gov is the U.S. government's official web portal to all federal, state and local government web resources and services.